createdAt,value
2022-09-05T00:02:21.210Z,18.84
2022-09-05T00:04:57.847Z,18.63
2022-09-05T00:07:57.951Z,18.61
2022-09-05T00:10:36.193Z,18.59
2022-09-05T00:13:11.174Z,18.60
2022-09-05T00:15:50.508Z,18.43
2022-09-05T00:24:11.037Z,18.41
2022-09-05T00:24:27.483Z,18.51
2022-09-05T00:25:07.284Z,18.51
2022-09-05T00:27:51.055Z,18.48
2022-09-05T00:31:51.913Z,18.46
2022-09-05T00:33:21.443Z,18.47
2022-09-05T00:36:09.901Z,18.42
2022-09-05T00:38:43.081Z,18.34
2022-09-05T00:41:14.495Z,18.26
2022-09-05T00:43:44.661Z,18.30
2022-09-05T00:46:17.660Z,18.33
2022-09-05T00:48:52.751Z,18.31
2022-09-05T00:51:34.782Z,18.23
2022-09-05T00:54:40.329Z,18.15
2022-09-05T00:57:30.586Z,18.20
2022-09-05T01:00:16.986Z,18.24
2022-09-05T01:03:27.101Z,18.16
2022-09-05T01:06:18.971Z,18.09
2022-09-05T01:09:21.491Z,17.99
2022-09-05T01:12:07.778Z,17.98
2022-09-05T01:14:48.478Z,17.97
2022-09-05T01:17:31.470Z,17.98
2022-09-05T01:20:20.184Z,17.97
2022-09-05T01:23:22.561Z,17.96
2022-09-05T01:26:10.426Z,17.93
2022-09-05T01:29:16.104Z,17.94
2022-09-05T01:31:44.731Z,17.88
2022-09-05T01:34:31.431Z,17.83
2022-09-05T01:37:08.475Z,17.90
2022-09-05T01:40:14.645Z,17.98
2022-09-05T01:43:00.695Z,17.98
2022-09-05T01:45:42.549Z,17.89
2022-09-05T01:48:23.677Z,17.97
2022-09-05T01:51:01.942Z,17.96
2022-09-05T01:53:43.156Z,17.93
2022-09-05T01:56:43.088Z,17.94
2022-09-05T01:59:26.927Z,18.01
2022-09-05T02:02:25.026Z,18.02
2022-09-05T02:05:47.899Z,17.95
2022-09-05T02:08:46.639Z,18.00
2022-09-05T02:11:16.599Z,18.10
2022-09-05T02:14:13.199Z,17.96
2022-09-05T02:16:56.836Z,18.07
2022-09-05T02:19:31.700Z,18.09
2022-09-05T02:22:09.363Z,18.04
2022-09-05T02:24:39.671Z,17.95
2022-09-05T02:27:47.585Z,17.89
2022-09-05T02:30:16.685Z,17.83
2022-09-05T02:33:04.933Z,17.84
2022-09-05T02:35:42.479Z,17.94
2022-09-05T02:40:51.988Z,18.13
2022-09-05T02:45:15.181Z,18.12
2022-09-05T02:45:24.586Z,18.24
2022-09-05T02:47:00.351Z,18.37
2022-09-05T02:52:03.837Z,18.39
2022-09-05T02:57:29.485Z,18.39
2022-09-05T02:57:37.041Z,18.44
2022-09-05T02:59:09.085Z,18.50
2022-09-05T03:02:01.001Z,18.39
2022-09-05T03:04:39.306Z,18.27
2022-09-05T03:07:22.905Z,18.24
2022-09-05T03:10:10.107Z,18.14
2022-09-05T03:13:08.172Z,18.13
2022-09-05T03:16:11.091Z,18.21
2022-09-05T03:19:12.922Z,18.22
2022-09-05T03:22:24.327Z,18.17
2022-09-05T03:25:36.129Z,18.11
2022-09-05T03:28:29.764Z,18.40
2022-09-05T03:31:22.434Z,18.35
2022-09-05T03:34:41.572Z,18.34
2022-09-05T03:37:56.015Z,18.41
2022-09-05T03:40:50.189Z,18.52
2022-09-05T03:43:59.891Z,18.54
2022-09-05T03:46:48.947Z,18.44
2022-09-05T03:52:45.772Z,18.37
2022-09-05T03:57:11.773Z,18.46
2022-09-05T03:57:28.307Z,18.35
2022-09-05T03:58:56.283Z,18.21
2022-09-05T04:02:37.377Z,18.05
2022-09-05T04:08:15.119Z,18.38
2022-09-05T04:08:18.710Z,18.21
2022-09-05T04:10:31.030Z,18.20
2022-09-05T04:13:06.401Z,18.27
2022-09-05T04:15:42.043Z,18.47
2022-09-05T04:18:32.771Z,18.51
2022-09-05T04:21:08.846Z,18.61
2022-09-05T04:23:48.653Z,18.69
2022-09-05T04:26:46.300Z,18.78
2022-09-05T04:29:23.194Z,18.90
2022-09-05T04:32:17.445Z,18.88
2022-09-05T04:35:10.757Z,19.05
2022-09-05T04:37:48.531Z,19.21
2022-09-05T04:40:52.518Z,19.21
2022-09-05T04:43:28.961Z,19.19
2022-09-05T04:46:22.797Z,19.24
2022-09-05T04:49:03.156Z,19.10
2022-09-05T04:52:00.958Z,19.15
2022-09-05T04:54:45.819Z,19.17
2022-09-05T04:57:24.231Z,19.04
2022-09-05T05:06:00.143Z,19.09
2022-09-05T05:06:15.296Z,19.06
2022-09-05T05:06:17.930Z,19.13
2022-09-05T05:08:51.585Z,19.11
2022-09-05T05:14:27.339Z,19.17
2022-09-05T05:18:01.200Z,19.10
2022-09-05T05:18:07.037Z,19.16
2022-09-05T05:20:39.934Z,19.15
2022-09-05T05:23:07.312Z,18.80
2022-09-05T05:25:45.977Z,18.87
2022-09-05T05:28:23.961Z,19.06
2022-09-05T05:31:01.459Z,19.37
2022-09-05T05:40:50.874Z,19.60
2022-09-05T05:52:00.981Z,19.59
2022-09-05T05:54:41.800Z,19.77
2022-09-05T05:57:37.654Z,20.04
2022-09-05T06:00:15.022Z,20.16
2022-09-05T06:03:25.712Z,20.41
2022-09-05T06:06:16.169Z,20.72
2022-09-05T06:14:34.799Z,20.72
2022-09-05T06:14:58.872Z,20.94
2022-09-05T06:16:11.162Z,21.28
2022-09-05T06:19:24.124Z,21.31
2022-09-05T06:22:51.827Z,21.45
2022-09-05T06:25:58.892Z,21.29
2022-09-05T06:32:22.151Z,21.28
2022-09-05T06:35:30.877Z,21.42
2022-09-05T06:38:17.396Z,21.46
2022-09-05T06:40:55.534Z,21.49
2022-09-05T06:43:40.839Z,21.48
2022-09-05T06:46:54.767Z,21.36
2022-09-05T06:49:32.379Z,21.43
2022-09-05T06:52:39.561Z,21.18
2022-09-05T06:55:42.213Z,21.28
2022-09-05T06:58:46.266Z,21.55
2022-09-05T07:01:17.436Z,21.72
2022-09-05T07:04:49.337Z,21.75
2022-09-05T07:07:11.724Z,21.77
2022-09-05T07:09:57.526Z,21.88
2022-09-05T07:12:30.110Z,21.98
2022-09-05T07:15:09.266Z,22.19
2022-09-05T07:18:10.256Z,22.16
2022-09-05T07:21:16.790Z,22.20
2022-09-05T07:24:06.413Z,22.24
2022-09-05T07:26:51.850Z,22.70
2022-09-05T07:29:25.591Z,22.76
2022-09-05T07:31:57.972Z,22.95
2022-09-05T07:34:30.710Z,23.11
2022-09-05T07:37:15.302Z,23.18
2022-09-05T07:39:51.709Z,23.29
2022-09-05T07:42:26.583Z,22.87
2022-09-05T07:44:59.155Z,23.02
2022-09-05T07:47:30.704Z,23.00
2022-09-05T07:51:13.599Z,22.67
2022-09-05T07:57:00.269Z,22.96
2022-09-05T07:57:07.807Z,22.96
2022-09-05T07:58:44.097Z,22.66
2022-09-05T08:01:14.692Z,22.53
2022-09-05T08:03:44.646Z,22.80
2022-09-05T08:07:45.533Z,22.94
2022-09-05T08:10:05.232Z,23.09
2022-09-05T08:12:11.643Z,23.34
2022-09-05T08:14:52.848Z,23.50
2022-09-05T08:17:26.453Z,23.46
2022-09-05T08:20:23.765Z,23.48
2022-09-05T08:23:00.835Z,23.23
2022-09-05T08:25:36.236Z,22.75
2022-09-05T08:28:37.651Z,23.06
2022-09-05T08:31:12.749Z,23.30
2022-09-05T08:33:41.641Z,23.64
2022-09-05T08:36:19.330Z,23.84
2022-09-05T08:38:48.126Z,23.95
2022-09-05T08:41:37.512Z,24.13
2022-09-05T08:46:46.956Z,23.97
2022-09-05T08:47:19.528Z,24.30
2022-09-05T08:50:17.800Z,24.46
2022-09-05T08:52:58.784Z,24.49
2022-09-05T08:55:40.825Z,24.47
2022-09-05T08:58:34.055Z,24.66
2022-09-05T09:01:13.659Z,24.56
2022-09-05T09:04:02.216Z,24.43
2022-09-05T09:07:36.805Z,24.37
2022-09-05T09:10:01.805Z,24.26
2022-09-05T09:12:55.361Z,24.24
2022-09-05T09:15:30.943Z,24.30
2022-09-05T09:18:00.740Z,24.09
2022-09-05T09:20:47.577Z,23.87
2022-09-05T09:23:33.721Z,23.94
2022-09-05T09:26:11.702Z,24.16
2022-09-05T09:28:51.677Z,24.42
2022-09-05T09:31:33.286Z,24.51
2022-09-05T09:34:20.818Z,24.64
2022-09-05T09:37:44.181Z,24.76
2022-09-05T09:40:31.599Z,24.94
2022-09-05T09:43:07.295Z,25.04
2022-09-05T09:45:58.583Z,25.12
2022-09-05T09:49:21.661Z,24.71
2022-09-05T09:52:25.215Z,24.18
2022-09-05T09:55:42.124Z,24.23
2022-09-05T09:58:40.320Z,24.60
2022-09-05T10:01:36.484Z,24.42
2022-09-05T10:10:35.742Z,24.49
2022-09-05T10:10:45.544Z,24.85
2022-09-05T10:14:45.039Z,25.15
2022-09-05T10:17:40.597Z,25.37
2022-09-05T10:21:16.413Z,25.49
2022-09-05T10:24:14.763Z,25.69
2022-09-05T10:27:06.465Z,26.00
2022-09-05T10:29:47.894Z,26.02
2022-09-05T10:35:03.802Z,25.93
2022-09-05T10:35:25.726Z,25.91
2022-09-05T10:38:10.708Z,25.64
2022-09-05T10:41:20.005Z,25.16
2022-09-05T10:43:34.568Z,25.10
2022-09-05T10:46:39.725Z,25.34
2022-09-05T10:49:10.504Z,25.45
2022-09-05T10:51:51.853Z,25.15
2022-09-05T10:54:38.052Z,25.45
2022-09-05T10:57:23.353Z,25.44
2022-09-05T11:02:24.098Z,25.36
2022-09-05T11:03:02.119Z,25.49
2022-09-05T11:05:38.188Z,25.72
2022-09-05T11:08:12.300Z,25.88
2022-09-05T11:10:48.436Z,26.01
2022-09-05T11:13:27.731Z,25.94
2022-09-05T11:16:13.453Z,25.63
2022-09-05T11:18:57.075Z,25.77
2022-09-05T11:21:41.180Z,25.86
2022-09-05T11:24:27.579Z,26.01
2022-09-05T11:27:25.031Z,25.75
2022-09-05T11:29:54.873Z,25.43
2022-09-05T11:39:59.545Z,25.59
2022-09-05T11:40:10.762Z,25.82
2022-09-05T11:40:24.849Z,26.11
2022-09-05T11:42:32.120Z,26.37
2022-09-05T11:45:19.971Z,26.42
2022-09-05T11:48:10.769Z,26.05
2022-09-05T11:51:10.153Z,25.58
2022-09-05T11:54:23.272Z,25.88
2022-09-05T11:57:32.877Z,26.29
2022-09-05T12:00:31.204Z,26.80
2022-09-05T12:03:58.686Z,26.84
2022-09-05T12:07:30.723Z,27.15
2022-09-05T12:10:47.361Z,27.29
2022-09-05T12:13:17.579Z,27.31
2022-09-05T12:18:45.689Z,27.20
2022-09-05T12:21:31.851Z,26.88
2022-09-05T12:27:40.714Z,26.60
2022-09-05T12:30:03.669Z,26.35
2022-09-05T12:36:01.333Z,26.21
2022-09-05T12:36:07.009Z,26.34
2022-09-05T12:40:54.924Z,26.63
2022-09-05T12:41:41.216Z,27.31
2022-09-05T12:42:09.731Z,26.56
2022-09-05T12:42:10.994Z,26.74
2022-09-05T12:44:45.863Z,26.81
2022-09-05T12:47:21.153Z,26.97
2022-09-05T12:50:02.657Z,27.01
2022-09-05T12:52:42.814Z,27.11
2022-09-05T12:55:26.186Z,27.03
2022-09-05T13:02:57.217Z,26.99
2022-09-05T13:03:02.751Z,26.80
2022-09-05T13:04:16.075Z,26.90
2022-09-05T13:06:41.089Z,26.80
2022-09-05T13:09:11.692Z,26.92
2022-09-05T13:14:49.161Z,26.65
2022-09-05T13:15:21.862Z,26.37
2022-09-05T13:17:59.395Z,26.38
2022-09-05T13:20:35.097Z,26.54
2022-09-05T13:23:12.366Z,26.62
2022-09-05T13:25:44.057Z,26.57
2022-09-05T13:28:16.233Z,26.76
2022-09-05T13:37:54.041Z,26.49
2022-09-05T13:38:10.674Z,26.38
2022-09-05T13:38:13.810Z,26.44
2022-09-05T13:39:29.863Z,26.53
2022-09-05T13:42:03.716Z,26.48
2022-09-05T13:44:38.271Z,26.35
2022-09-05T13:47:29.660Z,26.38
2022-09-05T13:50:13.453Z,26.45
2022-09-05T13:52:47.408Z,26.57
2022-09-05T13:55:23.662Z,26.61
2022-09-05T13:57:56.630Z,26.64
2022-09-05T14:00:54.466Z,26.76
2022-09-05T14:03:43.269Z,26.87
2022-09-05T14:06:49.122Z,26.88
2022-09-05T14:09:44.566Z,27.00
2022-09-05T14:12:29.392Z,26.97
2022-09-05T14:15:10.409Z,26.90
2022-09-05T14:18:01.495Z,26.79
2022-09-05T14:20:51.054Z,26.74
2022-09-05T14:23:22.340Z,26.65
2022-09-05T14:25:57.094Z,26.58
2022-09-05T14:28:29.125Z,26.55
2022-09-05T14:37:35.845Z,26.59
2022-09-05T14:37:48.501Z,26.47
2022-09-05T14:37:48.902Z,26.56
2022-09-05T14:40:32.184Z,26.67
2022-09-05T14:43:48.340Z,26.82
2022-09-05T14:46:40.671Z,27.04
2022-09-05T14:50:07.492Z,27.12
2022-09-05T14:52:43.436Z,27.21
2022-09-05T15:02:41.740Z,27.20
2022-09-05T15:02:49.216Z,27.13
2022-09-05T15:06:38.717Z,26.62
2022-09-05T15:12:15.088Z,26.54
2022-09-05T15:12:21.217Z,26.53
2022-09-05T15:15:01.872Z,26.57
2022-09-05T15:17:34.807Z,26.34
2022-09-05T15:20:07.685Z,26.26
2022-09-05T15:22:37.886Z,26.34
2022-09-05T15:25:17.881Z,26.22
2022-09-05T15:27:47.356Z,26.20
2022-09-05T15:30:34.688Z,26.08
2022-09-05T15:33:25.364Z,26.18
2022-09-05T15:35:54.668Z,26.11
2022-09-05T15:38:26.199Z,25.96
2022-09-05T15:41:20.664Z,25.88
2022-09-05T15:43:54.166Z,25.86
2022-09-05T15:46:28.143Z,25.88
2022-09-05T15:49:06.002Z,25.88
2022-09-05T15:51:42.518Z,25.91
2022-09-05T15:54:15.612Z,25.87
2022-09-05T15:57:08.979Z,25.76
2022-09-05T15:59:49.359Z,25.71
2022-09-05T16:02:22.071Z,25.68
2022-09-05T16:10:30.050Z,25.58
2022-09-05T16:10:46.270Z,25.33
2022-09-05T16:11:27.861Z,25.22
2022-09-05T16:13:52.907Z,24.97
2022-09-05T16:21:45.988Z,24.84
2022-09-05T16:23:30.681Z,24.63
2022-09-05T16:23:31.628Z,24.69
2022-09-05T16:25:12.064Z,24.69
2022-09-05T16:27:52.915Z,24.64
2022-09-05T16:30:23.224Z,24.69
2022-09-05T16:32:57.664Z,24.69
2022-09-05T16:35:26.954Z,24.63
2022-09-05T16:38:07.946Z,24.56
2022-09-05T16:40:40.181Z,24.45
2022-09-05T16:43:12.448Z,24.47
2022-09-05T16:45:48.032Z,24.45
2022-09-05T16:48:34.214Z,24.40
2022-09-05T16:51:15.247Z,24.31
2022-09-05T16:53:59.034Z,24.18
2022-09-05T16:56:31.292Z,24.09
2022-09-05T16:59:04.174Z,23.99
2022-09-05T17:02:00.592Z,23.91
2022-09-05T17:05:04.619Z,23.86
2022-09-05T17:07:53.931Z,23.81
2022-09-05T17:10:27.458Z,23.82
2022-09-05T17:12:58.264Z,23.77
2022-09-05T17:15:29.922Z,23.76
2022-09-05T17:18:19.103Z,23.70
2022-09-05T17:20:55.695Z,23.63
2022-09-05T17:29:15.721Z,23.56
2022-09-05T17:29:30.088Z,23.55
2022-09-05T17:31:26.618Z,23.43
2022-09-05T17:32:45.672Z,23.39
2022-09-05T17:35:41.734Z,23.27
2022-09-05T17:38:36.880Z,23.11
2022-09-05T17:41:37.416Z,23.07
2022-09-05T17:44:19.372Z,23.12
2022-09-05T17:47:02.243Z,23.06
2022-09-05T17:49:45.500Z,22.89
2022-09-05T17:52:23.935Z,22.85
2022-09-05T17:54:55.407Z,22.76
2022-09-05T17:57:41.530Z,22.73
2022-09-05T18:01:01.119Z,22.57
2022-09-05T18:04:15.805Z,22.34
2022-09-05T18:06:59.658Z,22.27
2022-09-05T18:10:14.770Z,22.17
2022-09-05T18:13:31.331Z,22.12
2022-09-05T18:16:13.696Z,22.07
2022-09-05T18:19:28.376Z,21.98
2022-09-05T18:21:55.156Z,21.88
2022-09-05T18:24:36.193Z,21.90
2022-09-05T18:30:09.535Z,21.81
2022-09-05T18:32:47.288Z,21.75
2022-09-05T18:35:26.393Z,21.73
2022-09-05T18:38:34.510Z,21.62
2022-09-05T18:41:19.605Z,21.60
2022-09-05T18:44:13.061Z,21.50
2022-09-05T18:46:51.759Z,21.40
2022-09-05T18:50:23.339Z,21.33
2022-09-05T18:52:23.566Z,21.26
2022-09-05T18:55:57.834Z,21.24
2022-09-05T18:57:51.686Z,21.24
2022-09-05T19:00:35.162Z,21.25
2022-09-05T19:03:17.528Z,21.21
2022-09-05T19:05:50.346Z,21.17
2022-09-05T19:08:26.777Z,21.15
2022-09-05T19:11:01.022Z,21.09
2022-09-05T19:13:48.386Z,21.08
2022-09-05T19:16:43.243Z,21.15
2022-09-05T19:19:16.342Z,21.19
2022-09-05T19:22:09.055Z,21.19
2022-09-05T19:24:44.926Z,21.19
2022-09-05T19:28:29.226Z,21.28
2022-09-05T19:36:55.465Z,21.10
2022-09-05T19:36:58.828Z,21.21
2022-09-05T19:37:03.965Z,21.16
2022-09-05T19:40:06.414Z,21.20
2022-09-05T19:44:53.299Z,21.15
2022-09-05T19:47:42.806Z,21.10
2022-09-05T19:47:57.561Z,21.10
2022-09-05T19:50:11.715Z,21.04
2022-09-05T19:52:41.058Z,21.00
2022-09-05T19:55:22.411Z,20.91
2022-09-05T19:58:01.236Z,20.89
2022-09-05T20:00:59.352Z,20.84
2022-09-05T20:03:39.436Z,20.77
2022-09-05T20:06:30.146Z,20.74
2022-09-05T20:09:16.202Z,20.67
2022-09-05T20:11:47.704Z,20.70
2022-09-05T20:14:25.267Z,20.64
2022-09-05T20:16:57.181Z,20.62
2022-09-05T20:19:29.353Z,20.47
2022-09-05T20:22:18.750Z,20.33
2022-09-05T20:24:49.531Z,20.22
2022-09-05T20:27:18.167Z,20.23
2022-09-05T20:29:55.912Z,20.18
2022-09-05T20:32:38.683Z,20.15
2022-09-05T20:37:31.344Z,20.12
2022-09-05T20:43:11.318Z,20.19
2022-09-05T20:43:31.791Z,20.10
2022-09-05T20:43:57.768Z,20.10
2022-09-05T20:54:04.250Z,20.06
2022-09-05T20:54:15.606Z,20.07
2022-09-05T20:54:24.998Z,20.02
2022-09-05T20:55:38.601Z,19.81
2022-09-05T20:58:11.981Z,19.77
2022-09-05T21:01:02.438Z,19.70
2022-09-05T21:03:38.125Z,19.51
2022-09-05T21:06:25.661Z,19.38
2022-09-05T21:08:56.193Z,19.23
2022-09-05T21:11:32.722Z,19.05
2022-09-05T21:14:03.810Z,18.97
2022-09-05T21:16:36.021Z,18.96
2022-09-05T21:19:04.391Z,18.82
2022-09-05T21:21:35.998Z,18.66
2022-09-05T21:24:16.410Z,18.65
2022-09-05T21:26:48.229Z,18.47
2022-09-05T21:29:18.284Z,18.38
2022-09-05T21:31:54.331Z,18.37
2022-09-05T21:34:28.129Z,18.22
2022-09-05T21:37:06.819Z,18.23
2022-09-05T21:39:40.300Z,18.26
2022-09-05T21:44:46.764Z,18.27
2022-09-05T21:47:46.172Z,18.21
2022-09-05T21:48:07.894Z,18.18
2022-09-05T21:50:41.002Z,18.14
2022-09-05T21:57:03.202Z,18.13
2022-09-05T21:59:14.611Z,18.05
2022-09-05T21:59:25.701Z,18.16
2022-09-05T22:01:54.630Z,18.04
2022-09-05T22:04:23.035Z,17.91
2022-09-05T22:06:53.357Z,17.84
2022-09-05T22:09:23.935Z,17.70
2022-09-05T22:11:52.763Z,17.81
2022-09-05T22:14:22.569Z,17.78
2022-09-05T22:16:53.256Z,17.72
2022-09-05T22:19:33.990Z,17.61
2022-09-05T22:22:16.446Z,17.53
2022-09-05T22:24:53.046Z,17.51
2022-09-05T22:27:22.856Z,17.46
2022-09-05T22:29:52.227Z,17.49
2022-09-05T22:32:34.028Z,17.30
2022-09-05T22:35:16.012Z,17.28
2022-09-05T22:38:01.981Z,17.22
2022-09-05T22:40:32.402Z,17.15
2022-09-05T22:43:02.626Z,17.14
2022-09-05T22:45:32.230Z,17.19
2022-09-05T22:48:01.828Z,17.26
2022-09-05T22:50:29.973Z,17.22
2022-09-05T22:52:58.091Z,17.32
2022-09-05T22:55:26.298Z,17.32
2022-09-05T22:57:55.789Z,17.29
2022-09-05T23:00:23.885Z,17.22
2022-09-05T23:02:57.853Z,17.25
2022-09-05T23:05:26.445Z,17.25
2022-09-05T23:07:58.079Z,17.09
2022-09-05T23:10:26.704Z,17.18
2022-09-05T23:12:56.271Z,17.23
2022-09-05T23:15:24.386Z,17.24
2022-09-05T23:17:55.952Z,17.10
2022-09-05T23:20:25.225Z,17.01
2022-09-05T23:22:54.919Z,16.74
2022-09-05T23:25:23.900Z,16.66
2022-09-05T23:27:52.908Z,16.67
2022-09-05T23:30:31.887Z,16.69
2022-09-05T23:33:06.524Z,16.74
2022-09-05T23:35:35.067Z,16.63
2022-09-05T23:38:04.513Z,16.75
2022-09-05T23:40:33.117Z,16.71
2022-09-05T23:43:03.182Z,16.70
2022-09-05T23:45:40.871Z,16.50
2022-09-05T23:48:13.625Z,16.54
2022-09-05T23:50:45.226Z,16.51
2022-09-05T23:53:16.639Z,16.56
2022-09-05T23:55:45.411Z,16.50
2022-09-05T23:58:14.426Z,16.47
